Time;durP1;ratioP1;P1;durP2;ratioP2;P2;SDS_P1;SDS_P2;PMS_P1;PMS_P2;Temp;Humidity;BMP_temperature;BMP_pressure;BME280_temperature;BME280_humidity;BME280_pressure;Samples;Min_cycle;Max_cycle;Signal;HPM_P1;HPM_P2
2023/11/20 00:00:55;;;;;;;14.60;3.15;;;12.80;71.50;;;;;;5019496;28;20039;-76
2023/11/20 00:03:20;;;;;;;15.82;3.20;;;12.80;71.60;;;;;;5014910;28;20034;-76
2023/11/20 00:05:46;;;;;;;17.33;4.40;;;12.90;71.80;;;;;;5019463;28;20036;-75
2023/11/20 00:08:12;;;;;;;14.77;3.53;;;12.80;71.60;;;;;;5029905;28;20118;-77
2023/11/20 00:10:38;;;;;;;16.42;3.40;;;12.80;71.60;;;;;;5020419;28;20075;-77
2023/11/20 00:13:07;;;;;;;16.75;5.03;;;12.80;71.60;;;;;;5018342;28;20089;-76
2023/11/20 00:15:34;;;;;;;12.68;2.90;;;12.80;71.60;;;;;;5038032;28;20033;-76
2023/11/20 00:18:02;;;;;;;14.65;3.47;;;12.80;71.60;;;;;;5029460;28;20040;-75
2023/11/20 00:20:28;;;;;;;16.92;3.38;;;12.80;71.70;;;;;;5024279;28;20189;-76
2023/11/20 00:22:54;;;;;;;15.18;3.78;;;12.70;71.60;;;;;;5020290;28;20029;-76
2023/11/20 00:25:21;;;;;;;18.48;4.78;;;12.70;71.60;;;;;;5026745;28;20030;-76
2023/11/20 00:27:48;;;;;;;15.68;4.22;;;12.70;71.60;;;;;;5022409;28;20496;-77
2023/11/20 00:30:14;;;;;;;16.38;3.58;;;12.70;71.70;;;;;;5021487;28;20033;-77
2023/11/20 00:32:40;;;;;;;18.85;5.00;;;12.70;71.70;;;;;;5022992;28;20376;-76
2023/11/20 00:35:07;;;;;;;19.10;3.72;;;12.70;71.80;;;;;;5019332;28;20568;-76
2023/11/20 00:37:33;;;;;;;18.65;3.72;;;12.70;71.80;;;;;;5032442;28;20137;-76
2023/11/20 00:40:01;;;;;;;20.75;4.20;;;12.70;71.80;;;;;;5027270;28;20033;-76
2023/11/20 00:42:27;;;;;;;15.30;3.75;;;12.70;71.80;;;;;;5024020;28;20107;-76
2023/11/20 00:44:54;;;;;;;22.75;3.45;;;12.70;71.80;;;;;;5024106;28;20120;-75
2023/11/20 00:47:20;;;;;;;17.85;3.42;;;12.70;71.80;;;;;;5034770;28;20091;-74
2023/11/20 00:49:47;;;;;;;19.30;4.68;;;12.70;71.80;;;;;;5024721;28;20108;-75
2023/11/20 00:52:14;;;;;;;18.98;3.78;;;12.70;71.80;;;;;;5023197;28;20583;-75
2023/11/20 00:54:40;;;;;;;17.15;4.10;;;12.60;71.70;;;;;;5025581;28;20374;-75
2023/11/20 00:57:06;;;;;;;16.42;4.68;;;12.60;71.70;;;;;;5032376;28;20067;-75
2023/11/20 00:59:32;;;;;;;17.67;3.75;;;12.60;71.70;;;;;;5029355;28;20497;-74
2023/11/20 01:01:59;;;;;;;16.60;4.03;;;12.60;71.80;;;;;;5018719;28;20070;-75
2023/11/20 01:04:25;;;;;;;13.82;4.75;;;12.50;71.60;;;;;;5010226;28;20285;-75
2023/11/20 01:06:51;;;;;;;15.65;3.35;;;12.50;71.70;;;;;;5006015;28;20026;-74
2023/11/20 01:09:17;;;;;;;16.55;3.58;;;12.50;71.70;;;;;;5021025;28;20053;-74
2023/11/20 01:11:44;;;;;;;20.02;3.97;;;12.50;71.70;;;;;;5020865;28;20116;-75
2023/11/20 01:14:12;;;;;;;15.00;4.40;;;12.50;71.80;;;;;;5024476;28;20021;-75
2023/11/20 01:16:38;;;;;;;15.60;3.40;;;12.40;71.60;;;;;;5025736;28;20107;-75
2023/11/20 01:19:04;;;;;;;16.95;3.67;;;12.40;71.60;;;;;;5019804;28;20534;-75
2023/11/20 01:21:30;;;;;;;15.32;3.83;;;12.40;71.70;;;;;;5020118;28;20100;-75
2023/11/20 01:23:56;;;;;;;19.52;3.95;;;12.40;71.70;;;;;;5022838;28;20045;-75
2023/11/20 01:26:23;;;;;;;13.38;4.30;;;12.40;71.70;;;;;;5027093;28;20029;-75
2023/11/20 01:28:49;;;;;;;17.40;3.58;;;12.40;71.70;;;;;;5023416;28;20280;-76
2023/11/20 01:31:15;;;;;;;14.77;3.20;;;12.40;71.70;;;;;;5021316;28;20060;-74
2023/11/20 01:33:41;;;;;;;13.57;3.40;;;12.40;71.70;;;;;;5027269;28;20519;-74
2023/11/20 01:36:08;;;;;;;18.63;2.97;;;12.30;71.50;;;;;;5034447;28;20022;-78
2023/11/20 01:38:36;;;;;;;13.63;2.72;;;12.30;71.60;;;;;;5043395;28;20477;-78
2023/11/20 01:41:03;;;;;;;13.80;5.38;;;12.30;71.60;;;;;;5024847;28;20053;-77
2023/11/20 01:43:29;;;;;;;19.17;4.22;;;12.30;71.60;;;;;;5043572;28;20033;-77
2023/11/20 01:46:02;;;;;;;11.43;3.20;;;12.30;71.70;;;;;;5024867;28;20377;-77
2023/11/20 01:48:29;;;;;;;19.30;3.63;;;12.30;71.70;;;;;;5024501;28;20029;-74
2023/11/20 01:50:55;;;;;;;15.15;3.08;;;12.20;71.50;;;;;;5022258;28;20537;-77
2023/11/20 01:53:22;;;;;;;14.50;2.80;;;12.20;72.10;;;;;;5023806;28;20041;-77
2023/11/20 01:55:49;;;;;;;19.23;4.28;;;12.20;71.60;;;;;;5030431;28;20041;-77
2023/11/20 01:58:15;;;;;;;16.10;4.40;;;12.20;71.60;;;;;;5022591;28;20543;-77
2023/11/20 02:00:41;;;;;;;20.80;3.60;;;12.20;71.60;;;;;;5021866;28;20546;-78
2023/11/20 02:03:07;;;;;;;11.20;3.50;;;12.20;71.60;;;;;;5022009;28;21409;-78
2023/11/20 02:05:37;;;;;;;13.32;2.97;;;12.20;71.60;;;;;;5047821;28;20500;-76
2023/11/20 02:08:03;;;;;;;21.88;4.13;;;12.20;71.70;;;;;;5019230;28;20037;-76
2023/11/20 02:10:30;;;;;;;15.73;3.25;;;12.20;71.70;;;;;;5018379;28;20117;-76
2023/11/20 02:12:58;;;;;;;16.35;3.35;;;12.20;71.60;;;;;;5022630;28;20040;-76
2023/11/20 02:15:25;;;;;;;17.33;4.32;;;12.20;71.70;;;;;;5020033;28;20026;-79
2023/11/20 02:17:51;;;;;;;14.38;3.67;;;12.10;71.50;;;;;;5032248;28;20548;-79
2023/11/20 02:20:17;;;;;;;16.38;3.55;;;12.10;71.50;;;;;;5018979;28;20116;-77
2023/11/20 02:22:43;;;;;;;10.57;3.05;;;12.10;71.50;;;;;;5013733;28;20346;-77
2023/11/20 02:25:09;;;;;;;12.73;3.28;;;12.10;71.50;;;;;;5021868;28;20492;-78
2023/11/20 02:28:02;;;;;;;14.70;3.83;;;12.10;71.50;;;;;;5012924;28;20041;-77
2023/11/20 02:30:29;;;;;;;10.88;2.97;;;12.10;71.50;;;;;;5013435;28;20409;-78
2023/11/20 02:32:55;;;;;;;13.88;2.97;;;12.10;71.50;;;;;;5020236;28;20030;-78
2023/11/20 02:35:24;;;;;;;15.25;5.05;;;12.10;71.90;;;;;;5031072;28;20040;-78
2023/11/20 02:37:51;;;;;;;14.60;3.38;;;12.10;71.50;;;;;;5029403;28;20040;-77
2023/11/20 02:40:18;;;;;;;11.77;3.15;;;12.10;71.50;;;;;;5024597;28;20054;-78
2023/11/20 02:42:45;;;;;;;10.30;3.28;;;12.00;71.30;;;;;;5026570;28;20215;-77
2023/11/20 02:45:13;;;;;;;15.20;3.13;;;12.10;71.50;;;;;;5034611;28;20117;-77
2023/11/20 02:47:39;;;;;;;12.32;3.25;;;12.10;71.60;;;;;;5026878;28;20034;-77
2023/11/20 02:50:06;;;;;;;13.10;4.28;;;12.00;71.40;;;;;;5023475;28;20094;-77
2023/11/20 02:52:32;;;;;;;13.50;2.70;;;12.10;71.60;;;;;;5028031;28;20603;-77
2023/11/20 02:54:59;;;;;;;16.77;3.38;;;12.10;71.60;;;;;;5032021;28;20033;-77
2023/11/20 02:57:26;;;;;;;12.70;3.20;;;12.00;71.40;;;;;;5028914;28;20025;-77
2023/11/20 02:59:52;;;;;;;16.00;3.92;;;12.00;71.50;;;;;;5036677;28;20475;-78
2023/11/20 03:02:19;;;;;;;11.48;2.95;;;12.00;71.50;;;;;;5021465;28;20037;-78
2023/11/20 03:04:49;;;;;;;13.57;2.50;;;12.00;71.50;;;;;;5027771;28;20031;-78
2023/11/20 03:07:16;;;;;;;16.60;4.20;;;12.00;71.50;;;;;;5033425;28;20083;-77
2023/11/20 03:09:42;;;;;;;11.45;2.30;;;12.00;71.50;;;;;;5026985;28;20435;-77
2023/11/20 03:12:08;;;;;;;9.48;2.97;;;12.00;71.50;;;;;;5020407;28;20041;-78
2023/11/20 03:14:35;;;;;;;13.23;4.30;;;12.00;71.50;;;;;;5027460;28;20091;-80
2023/11/20 03:17:02;;;;;;;9.30;2.30;;;12.00;71.60;;;;;;5025484;28;20060;-78
2023/11/20 03:19:28;;;;;;;11.50;2.78;;;12.00;71.60;;;;;;5022283;28;20029;-78
2023/11/20 03:21:55;;;;;;;11.60;2.30;;;12.00;71.60;;;;;;5035147;28;20402;-78
2023/11/20 03:24:21;;;;;;;17.48;3.70;;;11.90;71.50;;;;;;5022998;28;20258;-77
2023/11/20 03:26:47;;;;;;;11.75;3.10;;;11.90;72.00;;;;;;5022431;28;20132;-78
2023/11/20 03:29:13;;;;;;;13.15;3.05;;;11.90;71.60;;;;;;5025770;28;20033;-77
2023/11/20 03:31:40;;;;;;;13.32;2.63;;;11.90;71.60;;;;;;5026346;28;20037;-77
2023/11/20 03:34:06;;;;;;;11.23;2.97;;;11.80;71.40;;;;;;5014539;28;20033;-78
2023/11/20 03:36:34;;;;;;;9.80;2.33;;;11.80;71.50;;;;;;5024487;28;20040;-78
2023/11/20 03:39:01;;;;;;;10.43;2.50;;;11.80;71.50;;;;;;5023254;28;20029;-77
2023/11/20 03:41:27;;;;;;;12.10;2.55;;;11.80;71.60;;;;;;5016748;28;20045;-77
2023/11/20 03:43:53;;;;;;;12.13;3.67;;;11.80;71.60;;;;;;5025693;28;20041;-77
2023/11/20 03:46:19;;;;;;;8.00;2.45;;;11.80;71.60;;;;;;5026842;28;20026;-78
2023/11/20 03:48:45;;;;;;;13.93;3.05;;;11.80;71.60;;;;;;5032543;28;20461;-78
2023/11/20 03:51:14;;;;;;;13.10;3.45;;;11.80;71.70;;;;;;5021452;28;20267;-76
2023/11/20 03:53:40;;;;;;;7.53;2.45;;;11.80;71.70;;;;;;5029285;28;20112;-77
2023/11/20 03:56:08;;;;;;;8.25;3.53;;;11.80;71.70;;;;;;5026032;28;20160;-77
2023/11/20 03:58:34;;;;;;;13.80;2.90;;;11.80;71.70;;;;;;5026173;28;20026;-78
2023/11/20 04:01:02;;;;;;;15.68;3.67;;;11.80;71.70;;;;;;5014737;28;20497;-77
2023/11/20 04:03:29;;;;;;;14.25;3.33;;;11.80;71.70;;;;;;5023226;28;20040;-78
2023/11/20 04:05:55;;;;;;;13.85;2.83;;;11.80;71.70;;;;;;5052935;28;20405;-77
2023/11/20 04:08:21;;;;;;;17.02;3.88;;;11.80;71.70;;;;;;5024419;28;20095;-77
2023/11/20 04:10:48;;;;;;;10.07;2.95;;;11.80;71.70;;;;;;5028643;28;20021;-77
2023/11/20 04:13:13;;;;;;;12.75;2.58;;;11.80;71.80;;;;;;5024571;28;20108;-77
2023/11/20 04:15:39;;;;;;;15.18;2.80;;;11.80;71.80;;;;;;5022099;28;20691;-77
2023/11/20 04:18:06;;;;;;;10.90;2.60;;;11.80;71.80;;;;;;5029806;28;20381;-78
2023/11/20 04:20:32;;;;;;;11.40;2.75;;;11.80;71.80;;;;;;5030142;28;20080;-77
2023/11/20 04:22:58;;;;;;;8.10;3.08;;;11.80;71.80;;;;;;5026249;28;20037;-76
2023/11/20 04:25:24;;;;;;;13.43;3.22;;;11.80;71.90;;;;;;5023056;28;20026;-76
2023/11/20 04:27:52;;;;;;;11.15;2.55;;;11.80;71.90;;;;;;5040133;28;20037;-77
2023/11/20 04:30:20;;;;;;;12.55;3.85;;;11.80;71.90;;;;;;5027024;28;20037;-77
2023/11/20 04:32:46;;;;;;;8.02;2.83;;;11.80;72.00;;;;;;5026568;28;20080;-77
2023/11/20 04:35:12;;;;;;;10.57;2.80;;;11.80;72.00;;;;;;5028312;28;20025;-77
2023/11/20 04:37:38;;;;;;;10.68;2.92;;;11.80;72.10;;;;;;5062961;28;20032;-77
2023/11/20 04:40:07;;;;;;;7.13;2.53;;;11.80;72.10;;;;;;5028796;28;21476;-77
2023/11/20 04:42:33;;;;;;;11.68;2.88;;;11.80;72.10;;;;;;5029715;28;20044;-77
2023/11/20 04:44:59;;;;;;;8.38;2.25;;;11.80;72.10;;;;;;5026314;28;20034;-77
2023/11/20 04:47:25;;;;;;;11.55;2.60;;;11.80;72.20;;;;;;5029604;28;20505;-77
2023/11/20 04:49:51;;;;;;;10.35;2.72;;;11.80;72.10;;;;;;5023773;28;20033;-77
2023/11/20 04:52:17;;;;;;;15.25;2.78;;;11.80;72.20;;;;;;5031976;28;20083;-77
2023/11/20 04:54:43;;;;;;;12.77;3.47;;;11.80;72.20;;;;;;5033012;28;20029;-76
2023/11/20 04:57:09;;;;;;;7.90;2.38;;;11.80;72.20;;;;;;5041984;28;20057;-77
2023/11/20 04:59:36;;;;;;;8.50;2.25;;;11.80;72.20;;;;;;5028281;28;20037;-76
2023/11/20 05:02:02;;;;;;;9.57;2.30;;;11.80;72.20;;;;;;5022429;28;20040;-77
2023/11/20 05:04:28;;;;;;;7.65;2.20;;;11.70;72.10;;;;;;5017745;28;20436;-78
2023/11/20 05:06:54;;;;;;;13.90;2.17;;;11.70;72.10;;;;;;5035918;28;20481;-78
2023/11/20 05:09:23;;;;;;;10.23;2.75;;;11.80;72.30;;;;;;5030097;28;20128;-78
2023/11/20 05:11:50;;;;;;;9.15;2.63;;;11.80;72.30;;;;;;5020818;28;20508;-77
2023/11/20 05:14:17;;;;;;;7.55;2.30;;;11.80;72.30;;;;;;5031774;28;20503;-77
2023/11/20 05:16:43;;;;;;;6.45;1.75;;;11.80;72.40;;;;;;5018500;28;20038;-77
2023/11/20 05:19:09;;;;;;;7.22;2.05;;;11.70;72.20;;;;;;5024958;28;20029;-77
2023/11/20 05:21:35;;;;;;;7.63;2.78;;;11.70;72.20;;;;;;5035631;28;20030;-76
2023/11/20 05:24:01;;;;;;;13.45;3.40;;;11.80;72.50;;;;;;5029029;28;20669;-76
2023/11/20 05:26:27;;;;;;;5.93;1.80;;;11.80;72.50;;;;;;5007875;28;20030;-77
2023/11/20 05:28:54;;;;;;;6.63;1.50;;;11.70;72.30;;;;;;5027558;28;20036;-76
2023/11/20 05:31:21;;;;;;;7.38;2.08;;;11.70;72.30;;;;;;5025110;28;20032;-77
2023/11/20 05:33:47;;;;;;;7.90;2.15;;;11.80;73.00;;;;;;5029472;28;20033;-76
2023/11/20 05:36:14;;;;;;;8.07;1.70;;;11.70;72.30;;;;;;5027545;28;20028;-76
2023/11/20 05:38:40;;;;;;;7.10;1.92;;;11.80;72.50;;;;;;5030199;28;20029;-77
2023/11/20 05:41:06;;;;;;;9.00;2.17;;;11.70;72.40;;;;;;5023944;28;20467;-77
2023/11/20 05:43:32;;;;;;;7.75;1.80;;;11.70;72.40;;;;;;5029454;28;20113;-78
2023/11/20 05:45:58;;;;;;;10.73;2.83;;;11.70;72.40;;;;;;5027838;28;20037;-78
2023/11/20 05:48:24;;;;;;;8.30;2.13;;;11.70;72.50;;;;;;5030165;28;20598;-78
2023/11/20 05:50:50;;;;;;;11.48;2.58;;;11.70;72.50;;;;;;5022048;28;20428;-76
2023/11/20 05:53:16;;;;;;;8.15;1.50;;;11.70;73.00;;;;;;5025439;28;20025;-76
2023/11/20 05:55:44;;;;;;;10.23;2.10;;;11.70;72.60;;;;;;5024776;28;20072;-77
2023/11/20 05:58:11;;;;;;;5.50;1.67;;;11.70;72.60;;;;;;5021314;28;20086;-77
2023/11/20 06:00:37;;;;;;;7.30;1.98;;;11.70;72.60;;;;;;5030007;28;20025;-76
2023/11/20 06:03:05;;;;;;;6.25;1.83;;;11.70;72.70;;;;;;5018430;28;20226;-76
2023/11/20 06:05:30;;;;;;;6.93;1.35;;;11.70;72.70;;;;;;5027521;28;20033;-76
2023/11/20 06:07:57;;;;;;;7.30;1.85;;;11.70;72.70;;;;;;5022822;28;20041;-76
2023/11/20 06:10:23;;;;;;;4.20;1.60;;;11.70;72.70;;;;;;5021015;28;20018;-78
2023/11/20 06:12:49;;;;;;;4.07;1.25;;;11.70;72.80;;;;;;5051000;28;20060;-76
2023/11/20 06:15:15;;;;;;;6.82;1.40;;;11.70;72.80;;;;;;5018966;28;20065;-76
2023/11/20 06:17:41;;;;;;;4.35;1.50;;;11.70;72.80;;;;;;5020851;28;20028;-78
2023/11/20 06:20:08;;;;;;;4.10;1.25;;;11.60;72.70;;;;;;5020657;28;20030;-77
2023/11/20 06:22:35;;;;;;;3.00;1.10;;;11.70;72.80;;;;;;5019947;28;20085;-78
2023/11/20 06:25:01;;;;;;;4.55;1.70;;;11.70;72.80;;;;;;5034630;28;20532;-78
2023/11/20 06:27:27;;;;;;;6.63;1.38;;;11.70;72.80;;;;;;5021616;28;20523;-78
2023/11/20 06:29:53;;;;;;;2.75;1.02;;;11.60;72.70;;;;;;5021453;28;20025;-79
2023/11/20 06:32:19;;;;;;;4.97;1.35;;;11.70;72.90;;;;;;5019621;28;20043;-79
2023/11/20 06:34:45;;;;;;;5.72;2.00;;;11.70;72.90;;;;;;5022966;28;20030;-78
2023/11/20 06:37:11;;;;;;;3.50;0.82;;;11.60;72.80;;;;;;5019084;28;20087;-76
2023/11/20 06:39:38;;;;;;;7.28;1.50;;;11.60;72.80;;;;;;5024449;28;20063;-77
2023/11/20 06:42:04;;;;;;;4.95;1.63;;;11.60;72.80;;;;;;5021519;28;20154;-78
2023/11/20 06:44:30;;;;;;;5.28;1.48;;;11.50;72.70;;;;;;5058701;28;20266;-76
2023/11/20 06:46:56;;;;;;;3.85;1.45;;;11.50;72.70;;;;;;5021486;28;20045;-77
2023/11/20 06:49:22;;;;;;;5.93;1.00;;;11.50;72.80;;;;;;5024586;28;20029;-74
2023/11/20 06:51:49;;;;;;;5.07;1.10;;;11.50;72.80;;;;;;5049743;28;20078;-75
2023/11/20 06:54:15;;;;;;;5.90;1.33;;;11.50;72.90;;;;;;5030037;28;20029;-74
2023/11/20 06:56:41;;;;;;;6.00;1.23;;;11.50;73.00;;;;;;5017030;28;20034;-76
2023/11/20 06:59:07;;;;;;;3.92;1.15;;;11.50;73.00;;;;;;5033492;28;20123;-75
2023/11/20 07:01:33;;;;;;;5.55;1.95;;;11.40;72.90;;;;;;5003451;28;20029;-75
2023/11/20 07:03:59;;;;;;;3.92;1.00;;;11.40;73.00;;;;;;5017568;28;20591;-76
2023/11/20 07:06:26;;;;;;;4.10;1.60;;;11.40;72.90;;;;;;5021539;28;20041;-76
2023/11/20 07:08:54;;;;;;;4.03;1.23;;;11.40;73.00;;;;;;5025334;28;20033;-76
2023/11/20 07:11:20;;;;;;;2.83;1.33;;;11.40;73.00;;;;;;5023342;28;20037;-76
2023/11/20 07:13:46;;;;;;;5.47;1.55;;;11.40;73.00;;;;;;5021458;28;20025;-76
2023/11/20 07:16:13;;;;;;;4.72;1.60;;;11.40;73.10;;;;;;5023453;28;20034;-76
2023/11/20 07:18:39;;;;;;;5.20;1.55;;;11.40;73.10;;;;;;5028275;28;20588;-75
2023/11/20 07:21:06;;;;;;;6.43;2.17;;;11.40;73.20;;;;;;5022573;28;20118;-76
2023/11/20 07:23:33;;;;;;;6.35;1.65;;;11.40;73.20;;;;;;5022921;28;20139;-76
2023/11/20 07:25:59;;;;;;;6.18;1.35;;;11.40;73.20;;;;;;5023440;28;20559;-77
2023/11/20 07:28:25;;;;;;;6.93;1.30;;;11.40;73.20;;;;;;5021502;28;20336;-78
2023/11/20 07:30:51;;;;;;;5.72;1.73;;;11.40;73.30;;;;;;5020499;28;20034;-78
2023/11/20 07:33:17;;;;;;;7.50;1.83;;;11.40;73.30;;;;;;5029234;28;20495;-76
2023/11/20 07:35:43;;;;;;;4.03;1.38;;;11.40;73.30;;;;;;5025889;28;20069;-77
2023/11/20 07:38:09;;;;;;;6.97;1.73;;;11.40;73.40;;;;;;5026885;28;20455;-76
2023/11/20 07:40:36;;;;;;;7.18;1.60;;;11.50;73.90;;;;;;5021815;28;20037;-77
2023/11/20 07:43:02;;;;;;;5.68;1.88;;;11.50;74.20;;;;;;5026145;28;20156;-77
2023/11/20 07:45:28;;;;;;;7.88;1.77;;;11.50;74.30;;;;;;5021022;28;20025;-77
2023/11/20 07:47:54;;;;;;;6.38;1.80;;;11.60;74.50;;;;;;5021007;28;20095;-77
2023/11/20 07:50:20;;;;;;;5.50;2.03;;;11.60;74.60;;;;;;5028915;28;20034;-78
2023/11/20 07:52:46;;;;;;;5.22;1.63;;;11.60;74.60;;;;;;5023281;28;20760;-77
2023/11/20 07:55:12;;;;;;;5.53;1.65;;;11.70;74.70;;;;;;5026178;28;20707;-77
2023/11/20 07:57:38;;;;;;;4.60;1.45;;;11.60;74.50;;;;;;5029777;28;20033;-77
2023/11/20 08:00:05;;;;;;;6.40;1.73;;;11.60;74.50;;;;;;5018307;28;20162;-76
2023/11/20 08:02:38;;;;;;;4.97;1.48;;;11.70;74.70;;;;;;5031984;28;20068;-75
2023/11/20 08:05:05;;;;;;;4.82;1.70;;;11.60;74.50;;;;;;5015179;28;20519;-77
2023/11/20 08:07:31;;;;;;;5.05;2.53;;;11.60;74.50;;;;;;5030378;28;20094;-77
2023/11/20 08:09:58;;;;;;;6.15;1.50;;;11.70;74.90;;;;;;5020133;28;20036;-76
2023/11/20 08:12:24;;;;;;;6.05;2.15;;;11.70;74.60;;;;;;5019081;28;20021;-75
2023/11/20 08:14:51;;;;;;;2.80;1.35;;;11.60;74.40;;;;;;5029241;28;20067;-76
2023/11/20 08:17:17;;;;;;;4.03;1.42;;;11.70;74.60;;;;;;5024617;28;20076;-77
2023/11/20 08:19:43;;;;;;;4.18;1.50;;;11.70;74.50;;;;;;5022142;28;20048;-75
2023/11/20 08:22:09;;;;;;;5.57;2.00;;;11.70;74.50;;;;;;5021010;28;20031;-77
2023/11/20 08:24:35;;;;;;;2.67;1.20;;;11.70;74.50;;;;;;5032494;28;20060;-77
2023/11/20 08:27:01;;;;;;;3.67;1.20;;;11.70;74.50;;;;;;5022725;28;20179;-76
2023/11/20 08:29:27;;;;;;;2.05;1.17;;;11.70;74.50;;;;;;4992666;28;20030;-75
2023/11/20 08:31:56;;;;;;;6.78;2.03;;;11.70;74.50;;;;;;5023428;28;20711;-78
2023/11/20 08:34:22;;;;;;;3.90;1.35;;;11.70;74.50;;;;;;5019947;28;20025;-77
2023/11/20 08:36:49;;;;;;;3.20;1.45;;;11.70;74.70;;;;;;5028597;28;20452;-78
2023/11/20 08:39:14;;;;;;;3.30;1.10;;;11.70;74.80;;;;;;5025613;28;20025;-78
2023/11/20 08:41:42;;;;;;;4.82;1.25;;;11.80;74.90;;;;;;5021567;28;20529;-78
2023/11/20 08:44:08;;;;;;;3.67;1.30;;;11.80;74.80;;;;;;5023531;28;20038;-78
2023/11/20 08:46:35;;;;;;;3.88;1.30;;;11.80;74.80;;;;;;5034600;28;20030;-76
2023/11/20 08:49:02;;;;;;;3.90;1.83;;;11.80;74.70;;;;;;5012906;28;20332;-75
2023/11/20 08:51:30;;;;;;;4.38;1.27;;;11.80;74.60;;;;;;5024390;28;20084;-77
2023/11/20 08:53:57;;;;;;;2.38;0.73;;;11.80;74.70;;;;;;5021688;28;20484;-76
2023/11/20 08:56:23;;;;;;;3.72;1.35;;;11.90;74.90;;;;;;5027562;28;20119;-76
2023/11/20 08:58:56;;;;;;;2.75;1.00;;;11.90;74.80;;;;;;5019462;28;20498;-79
2023/11/20 09:01:35;;;;;;;4.50;1.30;;;11.90;74.70;;;;;;5021330;28;20128;-81
2023/11/20 09:04:02;;;;;;;4.30;1.20;;;11.90;74.70;;;;;;5023883;28;20129;-80
2023/11/20 09:06:29;;;;;;;5.13;1.17;;;12.00;74.80;;;;;;5021483;28;20115;-80
2023/11/20 09:08:57;;;;;;;2.90;1.38;;;12.00;75.00;;;;;;5026890;28;20539;-80
2023/11/20 09:11:24;;;;;;;5.45;1.30;;;12.10;75.30;;;;;;5022836;28;20095;-79
2023/11/20 09:13:53;;;;;;;2.95;0.88;;;12.20;75.60;;;;;;5014602;28;20091;-79
2023/11/20 09:16:22;;;;;;;3.03;1.35;;;12.20;75.70;;;;;;5030794;28;20056;-79
2023/11/20 09:18:49;;;;;;;2.95;1.27;;;12.30;75.80;;;;;;5020615;28;20042;-78
2023/11/20 09:21:16;;;;;;;2.47;1.00;;;12.40;76.00;;;;;;5019933;28;20084;-78
2023/11/20 09:23:44;;;;;;;3.67;0.90;;;12.50;76.30;;;;;;5034486;28;20263;-79
2023/11/20 09:26:11;;;;;;;4.38;1.00;;;12.60;76.40;;;;;;5019481;28;20132;-78
2023/11/20 09:28:42;;;;;;;3.22;1.00;;;12.70;76.50;;;;;;5026099;28;20063;-79
2023/11/20 09:31:18;;;;;;;2.70;0.90;;;12.80;76.60;;;;;;5021951;28;20049;-79
2023/11/20 09:33:50;;;;;;;2.20;0.82;;;12.90;76.60;;;;;;5019224;28;20112;-79
2023/11/20 09:36:18;;;;;;;4.75;1.00;;;13.00;76.60;;;;;;5016512;28;20287;-79
2023/11/20 09:38:45;;;;;;;1.83;0.80;;;13.10;76.60;;;;;;5024178;28;20039;-78
2023/11/20 09:41:12;;;;;;;2.85;1.05;;;13.20;76.70;;;;;;5014497;28;20446;-79
2023/11/20 09:43:44;;;;;;;3.92;1.23;;;13.30;76.70;;;;;;5025558;28;20068;-79
2023/11/20 09:46:13;;;;;;;1.50;0.70;;;13.50;76.90;;;;;;5023735;28;20473;-78
2023/11/20 09:48:42;;;;;;;1.40;0.73;;;13.50;76.70;;;;;;5021131;28;20253;-79
2023/11/20 09:51:10;;;;;;;2.97;1.08;;;13.70;76.80;;;;;;5025010;28;20540;-81
2023/11/20 09:53:39;;;;;;;3.83;0.80;;;13.80;76.70;;;;;;5033794;28;20041;-81
2023/11/20 09:56:06;;;;;;;3.25;1.00;;;13.90;76.70;;;;;;5030933;28;20478;-79
2023/11/20 09:58:34;;;;;;;2.33;0.90;;;14.00;76.70;;;;;;5020781;28;20680;-80
2023/11/20 10:01:05;;;;;;;3.90;0.85;;;14.10;76.60;;;;;;5016623;28;20112;-80
2023/11/20 10:03:39;;;;;;;1.80;0.70;;;14.20;76.50;;;;;;5023569;28;20545;-80
2023/11/20 10:06:11;;;;;;;3.47;0.80;;;14.20;76.20;;;;;;5019810;28;20026;-81
2023/11/20 10:08:41;;;;;;;2.45;0.82;;;14.30;76.20;;;;;;5030106;28;20124;-82
2023/11/20 10:11:07;;;;;;;3.42;0.90;;;14.40;76.20;;;;;;5024909;28;20568;-82
2023/11/20 10:13:38;;;;;;;3.88;1.42;;;14.40;76.10;;;;;;5035453;28;20179;-81
2023/11/20 10:16:12;;;;;;;2.65;1.08;;;14.50;76.10;;;;;;5025706;28;20040;-81
2023/11/20 10:18:38;;;;;;;2.28;0.77;;;14.60;76.20;;;;;;5023516;28;20341;-82
2023/11/20 10:21:06;;;;;;;1.42;0.60;;;14.60;76.00;;;;;;5026572;28;20424;-78
2023/11/20 10:23:32;;;;;;;2.67;0.95;;;14.70;75.90;;;;;;5027021;28;20524;-78
2023/11/20 10:26:00;;;;;;;2.00;0.50;;;14.80;75.90;;;;;;5027732;28;20119;-80
2023/11/20 10:28:29;;;;;;;1.85;0.80;;;14.90;75.80;;;;;;5015911;28;20103;-81
2023/11/20 10:30:56;;;;;;;2.03;0.80;;;15.00;75.70;;;;;;5023674;28;20120;-81
2023/11/20 10:33:23;;;;;;;2.38;0.43;;;15.10;75.60;;;;;;5017257;28;20026;-82
2023/11/20 10:35:53;;;;;;;1.75;0.70;;;15.10;75.40;;;;;;5019224;28;20048;-81
2023/11/20 10:38:20;;;;;;;2.10;0.73;;;15.20;75.40;;;;;;5023107;28;20032;-81
2023/11/20 10:40:49;;;;;;;4.03;0.93;;;15.20;75.20;;;;;;5019193;28;20176;-81
2023/11/20 10:43:16;;;;;;;1.70;0.57;;;15.30;75.20;;;;;;5018963;28;20426;-81
2023/11/20 10:45:42;;;;;;;2.53;0.55;;;15.30;75.00;;;;;;5027402;28;20029;-80
2023/11/20 10:48:08;;;;;;;1.15;0.60;;;15.30;74.80;;;;;;5025045;28;20394;-81
2023/11/20 10:50:35;;;;;;;2.80;0.60;;;15.30;74.70;;;;;;5021466;28;20036;-80
2023/11/20 10:53:06;;;;;;;1.00;0.60;;;15.40;74.70;;;;;;5029447;28;20532;-80
2023/11/20 10:55:50;;;;;;;1.35;0.60;;;15.40;74.50;;;;;;5027816;28;20119;-81
2023/11/20 10:58:16;;;;;;;;;;;15.50;74.40;;;;;;5033548;28;20357;-79
2023/11/20 11:00:44;;;;;;;2.45;0.52;;;15.60;74.40;;;;;;5020171;28;20002;-79
2023/11/20 11:03:11;;;;;;;1.25;0.60;;;15.70;74.40;;;;;;5019780;28;20828;-78
2023/11/20 11:05:40;;;;;;;2.50;0.65;;;15.80;74.30;;;;;;5013811;28;20033;-79
2023/11/20 11:08:08;;;;;;;1.70;0.63;;;15.90;74.70;;;;;;5024800;28;20240;-79
2023/11/20 11:10:40;;;;;;;1.10;0.55;;;16.00;73.90;;;;;;5024518;28;20112;-77
2023/11/20 11:13:08;;;;;;;2.08;0.55;;;16.10;73.70;;;;;;5035062;28;20457;-79
2023/11/20 11:15:35;;;;;;;2.33;0.73;;;16.30;73.90;;;;;;5032155;28;20041;-78
2023/11/20 11:18:05;;;;;;;2.60;1.02;;;16.40;73.80;;;;;;5023072;28;20094;-79
2023/11/20 11:20:40;;;;;;;2.92;0.70;;;16.50;73.70;;;;;;5026637;28;20033;-78
2023/11/20 11:23:11;;;;;;;1.63;0.70;;;16.80;73.70;;;;;;5023127;28;20095;-80
2023/11/20 11:25:43;;;;;;;1.20;0.43;;;16.90;73.50;;;;;;5017682;28;20043;-80
2023/11/20 11:28:14;;;;;;;3.72;0.82;;;17.00;73.20;;;;;;5027333;28;20026;-79
2023/11/20 11:30:44;;;;;;;2.10;0.60;;;17.10;73.50;;;;;;5017584;28;20365;-80
2023/11/20 11:33:19;;;;;;;0.77;0.43;;;17.30;73.00;;;;;;5019008;28;20036;-80
2023/11/20 11:35:57;;;;;;;2.38;0.98;;;17.40;72.70;;;;;;5021064;28;20107;-79
2023/11/20 11:38:38;;;;;;;1.77;0.70;;;17.50;72.50;;;;;;5015543;28;20045;-79
2023/11/20 11:41:19;;;;;;;1.75;0.70;;;17.50;72.10;;;;;;5023158;28;20359;-79
2023/11/20 11:44:01;;;;;;;2.33;0.50;;;17.70;72.10;;;;;;5021127;28;20519;-79
2023/11/20 11:46:27;;;;;;;1.05;0.60;;;17.80;71.70;;;;;;5018486;28;20131;-79
2023/11/20 11:49:14;;;;;;;2.20;1.05;;;17.80;71.50;;;;;;5016007;28;20117;-79
2023/11/20 11:51:42;;;;;;;2.13;0.50;;;17.90;71.10;;;;;;5021782;28;20044;-79
2023/11/20 11:54:18;;;;;;;2.10;0.63;;;18.00;71.10;;;;;;5036569;28;20053;-79
2023/11/20 11:57:19;;;;;;;1.95;0.70;;;18.00;70.60;;;;;;5019394;28;20539;-79
2023/11/20 11:59:46;;;;;;;2.67;0.90;;;18.10;70.50;;;;;;5010905;28;20026;-79
2023/11/20 12:02:18;;;;;;;1.13;0.65;;;18.20;70.50;;;;;;5016757;28;20061;-81
2023/11/20 12:04:54;;;;;;;3.13;0.70;;;18.20;70.20;;;;;;5012737;28;20052;-81
2023/11/20 12:07:35;;;;;;;3.85;1.10;;;18.20;69.90;;;;;;5023536;28;20384;-79
2023/11/20 12:10:03;;;;;;;1.77;0.80;;;18.20;69.70;;;;;;5021630;28;20044;-79
2023/11/20 12:12:54;;;;;;;2.17;1.08;;;18.20;69.90;;;;;;5019457;28;20060;-79
2023/11/20 12:15:29;;;;;;;2.58;0.88;;;18.10;69.40;;;;;;5033741;28;20659;-79
2023/11/20 12:18:05;;;;;;;0.77;0.60;;;18.10;69.40;;;;;;5025416;28;20025;-79
2023/11/20 12:20:33;;;;;;;2.60;0.63;;;18.10;69.30;;;;;;5033588;28;20514;-79
2023/11/20 12:23:09;;;;;;;1.77;0.60;;;18.10;69.30;;;;;;5021430;28;20078;-79
2023/11/20 12:25:37;;;;;;;2.95;0.95;;;18.10;69.20;;;;;;5025139;28;20033;-79
2023/11/20 12:28:05;;;;;;;0.82;0.50;;;18.10;69.10;;;;;;5020322;28;20041;-79
2023/11/20 12:30:32;;;;;;;1.00;0.63;;;18.10;69.00;;;;;;5014364;28;20029;-79
2023/11/20 12:32:58;;;;;;;2.78;1.08;;;18.10;68.90;;;;;;5032554;28;20052;-79
2023/11/20 12:35:24;;;;;;;2.08;0.80;;;18.10;68.80;;;;;;5021339;28;20083;-80
2023/11/20 12:37:52;;;;;;;1.45;0.60;;;18.10;68.70;;;;;;5033447;28;20041;-79
2023/11/20 12:40:19;;;;;;;0.80;0.40;;;18.10;68.50;;;;;;5007820;28;20033;-79
2023/11/20 12:42:45;;;;;;;0.63;0.50;;;18.10;68.40;;;;;;5027604;28;20515;-79
2023/11/20 12:45:12;;;;;;;1.38;0.57;;;18.10;68.30;;;;;;5028204;28;20083;-79